createdAt,value
2019-02-09T00:02:23.260Z,1.87
2019-02-09T00:05:36.870Z,1.63
2019-02-09T00:08:59.563Z,1.83
2019-02-09T00:12:13.198Z,1.50
2019-02-09T00:15:28.700Z,1.87
2019-02-09T00:18:44.292Z,1.70
2019-02-09T00:21:59.553Z,1.90
2019-02-09T00:25:14.803Z,1.80
2019-02-09T00:28:30.643Z,1.93
2019-02-09T00:31:45.966Z,1.90
2019-02-09T00:35:01.419Z,1.93
2019-02-09T00:38:15.079Z,2.10
2019-02-09T00:41:37.765Z,1.77
2019-02-09T00:44:53.711Z,1.70
2019-02-09T00:48:09.047Z,1.87
2019-02-09T00:51:24.282Z,1.60
2019-02-09T00:54:39.523Z,1.70
2019-02-09T00:57:55.550Z,1.80
2019-02-09T01:01:11.601Z,2.00
2019-02-09T01:04:27.603Z,1.90
2019-02-09T01:07:43.421Z,1.80
2019-02-09T01:10:59.029Z,1.77
2019-02-09T01:14:15.198Z,2.07
2019-02-09T01:17:31.188Z,1.80
2019-02-09T01:20:47.361Z,1.80
2019-02-09T01:24:03.287Z,1.80
2019-02-09T01:27:18.547Z,1.83
2019-02-09T01:30:34.532Z,1.70
2019-02-09T01:33:50.244Z,1.77
2019-02-09T01:37:05.502Z,1.70
2019-02-09T01:40:19.967Z,1.77
2019-02-09T01:43:42.656Z,1.80
2019-02-09T01:46:58.695Z,1.80
2019-02-09T01:50:14.585Z,1.53
2019-02-09T01:53:30.493Z,1.83
2019-02-09T01:56:46.439Z,1.63
2019-02-09T02:00:01.649Z,1.97
2019-02-09T02:06:34.935Z,1.83
2019-02-09T02:09:50.917Z,1.87
2019-02-09T02:13:06.918Z,1.53
2019-02-09T02:16:23.031Z,1.90
2019-02-09T02:19:38.218Z,1.63
2019-02-09T02:22:54.326Z,1.80
2019-02-09T02:26:10.250Z,1.80
2019-02-09T02:29:26.162Z,1.60
2019-02-09T02:32:41.380Z,1.70
2019-02-09T02:35:54.962Z,1.43
2019-02-09T02:39:17.629Z,1.90
2019-02-09T02:42:33.601Z,1.77
2019-02-09T02:45:47.182Z,1.60
2019-02-09T02:49:09.866Z,1.60
2019-02-09T02:52:25.133Z,1.53
2019-02-09T02:55:41.160Z,1.53
2019-02-09T02:58:57.210Z,1.90
2019-02-09T03:02:12.515Z,1.60
2019-02-09T03:05:28.136Z,1.50
2019-02-09T03:08:44.091Z,1.80
2019-02-09T03:12:00.170Z,1.47
2019-02-09T03:15:16.086Z,1.90
2019-02-09T03:18:31.411Z,1.87
2019-02-09T03:21:47.236Z,1.60
2019-02-09T03:25:03.352Z,1.73
2019-02-09T03:28:16.980Z,1.70
2019-02-09T03:31:39.663Z,2.00
2019-02-09T03:34:55.767Z,1.80
2019-02-09T03:38:11.499Z,2.00
2019-02-09T03:41:25.099Z,1.70
2019-02-09T03:44:47.785Z,1.60
2019-02-09T03:48:03.716Z,1.50
2019-02-09T03:51:19.581Z,2.00
2019-02-09T03:54:35.652Z,1.87
2019-02-09T03:57:51.302Z,1.50
2019-02-09T04:01:07.217Z,1.90
2019-02-09T04:04:22.533Z,1.60
2019-02-09T04:07:37.770Z,1.70
2019-02-09T04:10:53.905Z,1.50
2019-02-09T04:17:38.649Z,1.87
2019-02-09T04:21:01.389Z,1.83
2019-02-09T04:24:16.626Z,1.70
2019-02-09T04:27:31.886Z,1.80
2019-02-09T04:30:47.178Z,1.70
2019-02-09T04:34:03.270Z,1.73
2019-02-09T04:37:19.069Z,1.60
2019-02-09T04:40:35.002Z,1.87
2019-02-09T04:43:51.015Z,1.50
2019-02-09T04:47:06.234Z,1.87
2019-02-09T04:50:22.058Z,1.67
2019-02-09T04:53:38.077Z,2.00
2019-02-09T04:56:53.822Z,1.90
2019-02-09T05:00:09.515Z,1.77
2019-02-09T05:03:25.370Z,1.63
2019-02-09T05:06:41.447Z,1.80
2019-02-09T05:09:57.467Z,1.70
2019-02-09T05:13:12.840Z,1.73
2019-02-09T05:16:28.098Z,1.90
2019-02-09T05:19:43.366Z,1.90
2019-02-09T05:22:59.266Z,1.80
2019-02-09T05:26:15.271Z,1.77
2019-02-09T05:29:28.864Z,1.60
2019-02-09T05:32:51.559Z,1.90
2019-02-09T05:36:05.198Z,2.17
2019-02-09T05:39:21.241Z,2.00
2019-02-09T05:42:37.058Z,1.70
2019-02-09T05:45:50.647Z,1.83
2019-02-09T05:49:06.042Z,1.80
2019-02-09T05:52:21.898Z,1.90
2019-02-09T05:55:37.970Z,1.70
2019-02-09T05:58:53.915Z,1.70
2019-02-09T06:02:09.189Z,1.60
2019-02-09T06:05:25.226Z,1.87
2019-02-09T06:08:38.866Z,1.90
2019-02-09T06:12:01.562Z,2.00
2019-02-09T06:15:16.956Z,1.70
2019-02-09T06:18:33.115Z,1.80
2019-02-09T06:21:48.329Z,1.80
2019-02-09T06:25:04.174Z,1.77
2019-02-09T06:28:07.426Z,1.87
2019-02-09T06:34:53.886Z,1.70
2019-02-09T06:38:09.887Z,1.73
2019-02-09T06:41:23.523Z,1.67
2019-02-09T06:44:38.918Z,1.70
2019-02-09T06:47:55.055Z,1.70
2019-02-09T06:51:11.191Z,1.57
2019-02-09T06:54:26.978Z,1.80
2019-02-09T06:57:42.697Z,1.87
2019-02-09T07:00:58.719Z,1.80
2019-02-09T07:04:14.791Z,1.60
2019-02-09T07:07:30.872Z,1.80
2019-02-09T07:14:04.051Z,1.87
2019-02-09T07:17:20.125Z,2.00
2019-02-09T07:20:35.955Z,1.80
2019-02-09T07:23:52.027Z,2.00
2019-02-09T07:27:07.954Z,1.50
2019-02-09T07:30:23.948Z,1.73
2019-02-09T07:33:40.017Z,2.00
2019-02-09T07:36:55.302Z,1.90
2019-02-09T07:40:10.514Z,1.60
2019-02-09T07:43:25.757Z,1.90
2019-02-09T07:46:41.665Z,1.60
2019-02-09T07:49:57.715Z,1.87
2019-02-09T07:53:13.010Z,1.70
2019-02-09T07:56:28.387Z,1.83
2019-02-09T07:59:43.638Z,1.73
2019-02-09T08:02:59.531Z,1.90
2019-02-09T08:06:15.339Z,1.53
2019-02-09T08:09:31.426Z,1.70
2019-02-09T08:12:47.566Z,2.03
2019-02-09T08:16:03.506Z,1.60
2019-02-09T08:19:19.158Z,1.73
2019-02-09T08:22:34.918Z,1.87
2019-02-09T08:25:48.516Z,1.97
2019-02-09T08:29:11.210Z,1.60
2019-02-09T08:32:26.438Z,1.60
2019-02-09T08:35:41.644Z,1.90
2019-02-09T08:38:57.083Z,1.90
2019-02-09T08:42:12.298Z,1.77
2019-02-09T08:45:30.462Z,1.60
2019-02-09T08:48:46.059Z,1.73
2019-02-09T08:52:01.307Z,1.83
2019-02-09T08:55:16.766Z,1.63
2019-02-09T08:58:32.798Z,1.97
2019-02-09T09:01:48.023Z,1.83
2019-02-09T09:05:09.622Z,1.57
2019-02-09T09:08:21.141Z,1.23
2019-02-09T09:11:36.585Z,1.80
2019-02-09T09:14:51.847Z,1.70
2019-02-09T09:18:07.590Z,1.43
2019-02-09T09:21:23.663Z,1.50
2019-02-09T09:24:39.579Z,1.70
2019-02-09T09:27:55.616Z,1.70
2019-02-09T09:31:11.342Z,1.77
2019-02-09T09:34:27.290Z,2.03
2019-02-09T09:37:42.595Z,1.90
2019-02-09T09:40:58.498Z,2.10
2019-02-09T09:44:14.239Z,1.57
2019-02-09T09:47:30.274Z,2.00
2019-02-09T09:50:45.427Z,1.67
2019-02-09T09:54:01.362Z,1.83
2019-02-09T09:57:17.098Z,1.67
2019-02-09T10:00:32.670Z,1.83
2019-02-09T10:03:48.619Z,1.73
2019-02-09T10:07:04.621Z,1.93
2019-02-09T10:10:20.418Z,1.50
2019-02-09T10:13:35.626Z,1.57
2019-02-09T10:16:50.844Z,1.90
2019-02-09T10:20:06.582Z,1.60
2019-02-09T10:23:22.533Z,1.40
2019-02-09T10:26:38.486Z,1.40
2019-02-09T10:29:53.731Z,1.93
2019-02-09T10:33:09.601Z,1.60
2019-02-09T10:36:24.837Z,1.60
2019-02-09T10:39:40.871Z,1.33
2019-02-09T10:42:56.902Z,1.40
2019-02-09T10:46:12.211Z,1.40
2019-02-09T10:49:27.474Z,1.40
2019-02-09T10:52:41.085Z,1.70
2019-02-09T10:55:56.661Z,1.57
2019-02-09T10:59:12.468Z,1.20
2019-02-09T11:02:28.676Z,1.47
2019-02-09T11:05:44.524Z,1.43
2019-02-09T11:09:00.753Z,1.30
2019-02-09T11:12:16.873Z,1.27
2019-02-09T11:15:32.970Z,1.63
2019-02-09T11:18:49.093Z,1.27
2019-02-09T11:22:05.050Z,1.40
2019-02-09T11:25:21.202Z,1.23
2019-02-09T11:28:37.306Z,1.27
2019-02-09T11:31:52.527Z,1.10
2019-02-09T11:35:08.467Z,1.30
2019-02-09T11:38:24.447Z,1.10
2019-02-09T11:41:40.383Z,1.40
2019-02-09T11:44:56.294Z,1.20
2019-02-09T11:48:12.001Z,1.23
2019-02-09T11:51:28.091Z,1.30
2019-02-09T11:54:43.978Z,1.20
2019-02-09T11:58:00.011Z,1.10
2019-02-09T12:01:15.205Z,1.10
2019-02-09T12:04:30.854Z,1.13
2019-02-09T12:07:46.784Z,1.30
2019-02-09T12:11:02.990Z,1.07
2019-02-09T12:14:06.249Z,1.10
2019-02-09T12:17:28.953Z,1.20
2019-02-09T12:20:51.655Z,0.90
2019-02-09T12:24:06.831Z,1.10
2019-02-09T12:27:22.689Z,1.10
2019-02-09T12:30:38.838Z,1.30
2019-02-09T12:33:54.722Z,1.10
2019-02-09T12:37:08.347Z,1.10
2019-02-09T12:40:31.705Z,1.07
2019-02-09T12:43:47.809Z,1.20
2019-02-09T12:47:03.713Z,0.90
2019-02-09T12:50:19.126Z,1.00
2019-02-09T12:53:34.350Z,1.10
2019-02-09T12:56:49.682Z,1.10
2019-02-09T13:00:05.887Z,1.07
2019-02-09T13:03:21.782Z,0.90
2019-02-09T13:06:37.687Z,1.20
2019-02-09T13:09:53.666Z,1.10
2019-02-09T13:13:08.867Z,1.20
2019-02-09T13:16:24.161Z,1.00
2019-02-09T13:19:39.310Z,1.10
2019-02-09T13:22:54.577Z,1.10
2019-02-09T13:26:09.991Z,1.10
2019-02-09T13:29:23.661Z,1.00
2019-02-09T13:32:39.270Z,1.10
2019-02-09T13:35:55.315Z,1.10
2019-02-09T13:39:11.727Z,1.00
2019-02-09T13:42:26.953Z,0.80
2019-02-09T13:45:43.035Z,0.87
2019-02-09T13:48:59.136Z,1.00
2019-02-09T13:52:15.182Z,0.83
2019-02-09T13:55:31.317Z,0.80
2019-02-09T13:58:46.699Z,0.83
2019-02-09T14:02:02.637Z,0.87
2019-02-09T14:05:18.355Z,0.90
2019-02-09T14:08:34.427Z,0.90
2019-02-09T14:11:50.614Z,1.00
2019-02-09T14:15:06.506Z,0.80
2019-02-09T14:18:22.362Z,0.90
2019-02-09T14:21:38.475Z,0.70
2019-02-09T14:24:54.465Z,0.80
2019-02-09T14:28:09.922Z,0.70
2019-02-09T14:31:25.215Z,0.80
2019-02-09T14:34:41.338Z,0.80
2019-02-09T14:37:56.621Z,0.93
2019-02-09T14:41:11.938Z,0.80
2019-02-09T14:44:27.174Z,0.90
2019-02-09T14:47:40.830Z,0.80
2019-02-09T14:51:03.519Z,0.80
2019-02-09T14:54:26.221Z,0.80
2019-02-09T14:57:41.490Z,0.90
2019-02-09T15:00:57.598Z,0.83
2019-02-09T15:04:13.363Z,0.80
2019-02-09T15:07:28.927Z,0.80
2019-02-09T15:10:45.022Z,0.90
2019-02-09T15:14:01.095Z,0.73
2019-02-09T15:17:17.147Z,1.10
2019-02-09T15:20:32.393Z,0.70
2019-02-09T15:23:47.675Z,1.00
2019-02-09T15:27:06.246Z,0.90
2019-02-09T15:30:21.598Z,0.80
2019-02-09T15:33:36.929Z,1.00
2019-02-09T15:36:52.998Z,0.80
2019-02-09T15:40:08.526Z,0.80
2019-02-09T15:43:24.325Z,0.70
2019-02-09T15:46:39.742Z,0.60
2019-02-09T15:49:55.699Z,0.90
2019-02-09T15:53:11.434Z,0.90
2019-02-09T15:56:26.722Z,0.93
2019-02-09T15:59:42.671Z,0.87
2019-02-09T16:02:58.022Z,0.80
2019-02-09T16:06:13.973Z,0.93
2019-02-09T16:09:29.843Z,0.80
2019-02-09T16:12:45.687Z,0.87
2019-02-09T16:16:01.558Z,0.77
2019-02-09T16:19:17.714Z,0.90
2019-02-09T16:22:33.659Z,0.70
2019-02-09T16:25:48.826Z,0.70
2019-02-09T16:29:04.922Z,0.70
2019-02-09T16:32:20.331Z,0.80
2019-02-09T16:35:35.618Z,0.60
2019-02-09T16:38:51.747Z,0.77
2019-02-09T16:42:06.994Z,0.80
2019-02-09T16:45:22.326Z,0.77
2019-02-09T16:48:38.166Z,0.77
2019-02-09T16:51:53.426Z,0.67
2019-02-09T16:55:09.505Z,0.83
2019-02-09T16:58:24.847Z,0.90
2019-02-09T17:01:40.861Z,1.20
2019-02-09T17:04:56.301Z,1.13
2019-02-09T17:08:12.302Z,1.30
2019-02-09T17:11:27.766Z,1.30
2019-02-09T17:14:43.886Z,1.33
2019-02-09T17:17:59.277Z,1.00
2019-02-09T17:21:15.497Z,0.97
2019-02-09T17:24:29.202Z,0.90
2019-02-09T17:27:44.458Z,0.77
2019-02-09T17:30:59.765Z,1.00
2019-02-09T17:34:15.855Z,1.10
2019-02-09T17:37:31.130Z,0.97
2019-02-09T17:40:47.211Z,0.90
2019-02-09T17:44:03.323Z,1.20
2019-02-09T17:47:19.390Z,1.00
2019-02-09T17:50:35.290Z,0.87
2019-02-09T17:53:51.242Z,0.80
2019-02-09T17:57:07.324Z,0.90
2019-02-09T18:00:24.773Z,0.90
2019-02-09T18:03:41.001Z,1.00
2019-02-09T18:06:56.234Z,0.77
2019-02-09T18:10:11.570Z,0.70
2019-02-09T18:13:27.621Z,0.90
2019-02-09T18:16:43.411Z,0.70
2019-02-09T18:19:58.850Z,0.80
2019-02-09T18:23:14.276Z,1.07
2019-02-09T18:26:29.496Z,0.80
2019-02-09T18:29:44.722Z,0.90
2019-02-09T18:33:00.779Z,1.00
2019-02-09T18:36:16.714Z,0.80
2019-02-09T18:39:32.819Z,0.80
2019-02-09T18:42:48.478Z,0.90
2019-02-09T18:45:57.632Z,0.60
2019-02-09T18:49:16.138Z,0.83
2019-02-09T18:52:31.818Z,0.80
2019-02-09T18:55:47.722Z,0.70
2019-02-09T18:59:03.445Z,0.70
2019-02-09T19:02:19.418Z,0.60
2019-02-09T19:05:35.450Z,0.90
2019-02-09T19:08:50.670Z,0.90
2019-02-09T19:12:06.390Z,0.70
2019-02-09T19:15:21.065Z,0.73
2019-02-09T19:18:43.750Z,0.90
2019-02-09T19:22:06.510Z,0.80
2019-02-09T19:25:22.075Z,1.00
2019-02-09T19:28:35.680Z,0.87
2019-02-09T19:31:51.304Z,0.67
2019-02-09T19:35:11.917Z,0.70
2019-02-09T19:38:24.310Z,0.70
2019-02-09T19:41:39.634Z,0.57
2019-02-09T19:44:55.054Z,0.70
2019-02-09T19:48:11.442Z,0.60
2019-02-09T19:51:27.608Z,0.70
2019-02-09T19:54:42.890Z,0.60
2019-02-09T19:57:58.106Z,0.80
2019-02-09T20:01:13.403Z,0.80
2019-02-09T20:04:29.344Z,0.90
2019-02-09T20:07:45.618Z,0.73
2019-02-09T20:11:00.961Z,0.70
2019-02-09T20:14:16.231Z,0.60
2019-02-09T20:17:29.883Z,0.50
2019-02-09T20:20:52.581Z,0.73
2019-02-09T20:24:07.769Z,0.67
2019-02-09T20:27:23.070Z,0.70
2019-02-09T20:30:38.414Z,0.50
2019-02-09T20:33:52.023Z,0.80
2019-02-09T20:37:14.714Z,0.70
2019-02-09T20:43:48.131Z,0.80
2019-02-09T20:47:03.513Z,0.63
2019-02-09T20:50:19.650Z,0.63
2019-02-09T20:53:35.607Z,0.67
2019-02-09T20:56:51.668Z,0.70
2019-02-09T21:00:07.075Z,0.60
2019-02-09T21:03:22.606Z,0.83
2019-02-09T21:06:38.292Z,0.70
2019-02-09T21:09:54.206Z,0.80
2019-02-09T21:13:09.988Z,0.77
2019-02-09T21:16:25.150Z,0.70
2019-02-09T21:19:40.882Z,0.70
2019-02-09T21:22:56.710Z,0.77
2019-02-09T21:26:12.342Z,0.73
2019-02-09T21:29:29.564Z,0.87
2019-02-09T21:32:45.285Z,1.00
2019-02-09T21:36:00.917Z,0.90
2019-02-09T21:39:16.517Z,0.70
2019-02-09T21:42:32.545Z,0.70
2019-02-09T21:45:48.159Z,0.73
2019-02-09T21:49:04.065Z,0.80
2019-02-09T21:52:20.168Z,0.90
2019-02-09T21:55:35.869Z,0.80
2019-02-09T21:58:51.762Z,0.77
2019-02-09T22:02:07.383Z,0.80
2019-02-09T22:05:23.262Z,0.67
2019-02-09T22:08:38.548Z,0.70
2019-02-09T22:11:53.981Z,0.90
2019-02-09T22:15:09.802Z,0.70
2019-02-09T22:18:25.805Z,0.70
2019-02-09T22:21:42.044Z,0.60
2019-02-09T22:24:58.220Z,0.83
2019-02-09T22:28:14.003Z,0.80
2019-02-09T22:31:29.984Z,0.97
2019-02-09T22:34:45.787Z,0.90
2019-02-09T22:38:01.622Z,0.70
2019-02-09T22:41:16.835Z,0.70
2019-02-09T22:44:32.522Z,0.90
2019-02-09T22:47:48.714Z,0.70
2019-02-09T22:51:04.427Z,0.80
2019-02-09T22:57:44.932Z,0.90
2019-02-09T23:04:55.353Z,0.73
2019-02-09T23:08:18.041Z,0.90
2019-02-09T23:11:33.758Z,0.90
2019-02-09T23:14:49.938Z,0.80
2019-02-09T23:18:05.713Z,0.87
2019-02-09T23:21:21.803Z,0.77
2019-02-09T23:24:37.677Z,0.83
2019-02-09T23:27:53.515Z,0.80
2019-02-09T23:31:08.703Z,0.87
2019-02-09T23:34:24.617Z,0.90
2019-02-09T23:37:40.590Z,0.83
2019-02-09T23:40:56.650Z,0.80
2019-02-09T23:44:12.575Z,0.80
2019-02-09T23:47:28.476Z,0.80
2019-02-09T23:50:44.568Z,0.80
2019-02-09T23:54:00.338Z,0.80
2019-02-09T23:57:16.046Z,0.60
